EKOD/ODE METAR and TAF weather

Enter ICAO airport designator
Station Type Date Time Source
EKOD METAR 2021/10/20 06:50 UTC NOAA

EKOD 200650Z 21014KT 5000 -RA FEW007 OVC014 14/14 Q0997


Station Type Date Time Source
EKOD Decoded METAR 2021/10/20 06:50 UTC NOAA

Odense / Beldringe, Denmark (EKOD) 55-29N 010-20E 17M
Oct 20, 2021 - 02:50 AM EDT / 2021.10.20 0650 UTC
Wind: from the SSW (210 degrees) at 16 MPH (14 KT):0
Visibility: 3 mile(s):0
Sky conditions: overcast
Weather: light rain
Temperature: 57 F (14 C)
Dew Point: 57 F (14 C)
Relative Humidity: 100%
Pressure (altimeter): 29.44 in. Hg (0997 hPa)
ob: EKOD 200650Z 21014KT 5000 -RA FEW007 OVC014 14/14 Q0997
cycle: 7

Station Type Date Time Source
EKOD TAF 2015/04/20 17:00 UTC NOAA

TAF
AMD EKOD 201701Z 2017/2018 CNL

Example: see airport list